Flight Track Log - Related Links

Times and Time Zones

All times are in EDT time to prevent confusion due to time zone crossing. See the FDX739 flight status page for this flight to view local times or setup timezone preferences in your user account.

Time Position Orientation Groundspeed Altitude Reporting Facility
EDT Latitude Longitude Course Direction KTS MPH feet Rate Location/Type
Sun 04:43:12 PM 35.0500 -89.9667 360° North 140 161 1,700  Level KMEM
Sun 04:43:45 PM 35.0833 -89.9667 360° North 164 189 2,700 2,688 Climbing KMEM
Sun 04:44:48 PM 35.1500 -89.9500 12° North 269 310 6,000 2,884 Climbing KMEM
Sun 04:45:54 PM 35.2333 -89.9333 North 279 321 8,900 1,395 Climbing KMEM
Sun 04:46:57 PM 35.2833 -89.8667 47° Northeast 290 334 9,000 1,176 Climbing KMEM
Sun 04:48:22 PM 35.3856 -89.7814 34° Northeast 306 352 11,800 2,193 Climbing Memphis Center
Sun 04:49:22 PM 35.4583 -89.7122 38° Northeast 314 361 14,300 3,000 Climbing Memphis Center
Sun 04:50:22 PM 35.5392 -89.6272 41° Northeast 358 412 17,800 3,200 Climbing Memphis Center
Sun 04:51:22 PM 35.6242 -89.5447 38° Northeast 381 438 20,700 2,750 Climbing Memphis Center
Sun 04:52:22 PM 35.7133 -89.4622 37° Northeast 397 457 23,300 2,150 Climbing Memphis Center
Sun 04:53:22 PM 35.8211 -89.3867 30° Northeast 407 468 25,000 1,950 Climbing Memphis Center
Sun 04:54:22 PM 35.9331 -89.3033 31° Northeast 444 511 27,200 -16 Climbing Memphis Center
Sun 05:00:42 PM 36.6460 -88.7640 31° Northeast 33,000 -79 Climbing FlightAware ADS-B
Sun 05:01:22 PM 36.7210 -88.7050 32° Northeast 33,000 -293 Level FlightAware ADS-B
Sun 05:02:07 PM 36.8080 -88.6380 32° Northeast 33,000 -300 Level FlightAware ADS-B
Sun 05:02:42 PM 36.8700 -88.5900 32° Northeast 33,000 -308 Level FlightAware ADS-B
Sun 05:03:27 PM 36.9370 -88.4940 49° Northeast 33,000 -315 Level FlightAware ADS-B
Sun 05:04:17 PM 36.9990 -88.3860 54° Northeast 33,000 -324 Level FlightAware ADS-B
Sun 05:05:02 PM 37.0600 -88.2810 54° Northeast 33,000 -334 Level FlightAware ADS-B
Sun 05:06:07 PM 37.1500 -88.1240 54° Northeast 33,000 -344 Level FlightAware ADS-B
Sun 05:06:47 PM 37.2000 -88.0360 54° Northeast 33,000 -360 Level FlightAware ADS-B
Sun 05:07:27 PM 37.2530 -87.9430 54° Northeast 33,000 -370 Level FlightAware ADS-B
Sun 05:08:12 PM 37.3120 -87.8400 54° Northeast 33,000 -381 Level FlightAware ADS-B
Sun 05:08:52 PM 37.3640 -87.7490 54° Northeast 33,000 -394 Level FlightAware ADS-B
Sun 05:09:32 PM 37.4170 -87.6550 55° Northeast 33,000 -407 Level FlightAware ADS-B
Sun 05:10:17 PM 37.4770 -87.5490 54° Northeast 33,000 -420 Level FlightAware ADS-B
Sun 05:10:57 PM 37.5300 -87.4560 54° Northeast 33,000 -436 Level FlightAware ADS-B
Sun 05:11:37 PM 37.5810 -87.3640 55° Northeast 33,000 -451 Level FlightAware ADS-B
Sun 05:12:22 PM 37.6420 -87.2560 54° Northeast 33,000 -467 Level FlightAware ADS-B
Sun 05:13:07 PM 37.6990 -87.1540 55° Northeast 33,000 -487 Level FlightAware ADS-B
Sun 05:13:47 PM 37.7520 -87.0590 55° Northeast 33,000 -509 Level FlightAware ADS-B
Sun 05:14:27 PM 37.8040 -86.9650 55° Northeast 33,000 -530 Level FlightAware ADS-B
Sun 05:15:07 PM 37.8550 -86.8730 55° Northeast 33,000 -552 Level FlightAware ADS-B
Sun 05:15:52 PM 37.9160 -86.7630 55° Northeast 33,000 -577 Level FlightAware ADS-B
Sun 05:16:37 PM 37.9740 -86.6570 55° Northeast 33,000 -608 Level FlightAware ADS-B
Sun 05:17:17 PM 38.0270 -86.5600 55° Northeast 33,000 -642 Level FlightAware ADS-B
Sun 05:17:57 PM 38.0770 -86.4690 55° Northeast 33,000 -675 Level FlightAware ADS-B
Sun 05:18:42 PM 38.1360 -86.3600 55° Northeast 33,000 -713 Level FlightAware ADS-B
Sun 05:19:22 PM 38.1890 -86.2630 55° Northeast 33,000 -760 Level FlightAware ADS-B
Sun 05:20:07 PM 38.2480 -86.1540 55° Northeast 32,300 -808 Descending FlightAware ADS-B
Sun 05:20:42 PM 38.2900 -86.0750 56° Northeast 31,700 -798 Descending FlightAware ADS-B
Sun 05:21:27 PM 38.3500 -85.9640 55° Northeast 31,000 -784 Descending FlightAware ADS-B
Sun 05:22:12 PM 38.4080 -85.8580 55° Northeast 31,000 -770 Level FlightAware ADS-B
Sun 05:22:52 PM 38.4600 -85.7600 56° Northeast 31,000 -844 Level FlightAware ADS-B
Sun 05:23:37 PM 38.5190 -85.6490 56° Northeast 31,000 -923 Level FlightAware ADS-B
Sun 05:24:17 PM 38.5710 -85.5490 56° Northeast 31,000 -1,031 Level FlightAware ADS-B
Sun 05:25:42 PM 38.6820 -85.3420 55° Northeast 31,000 -1,151 Level FlightAware ADS-B
Sun 05:26:17 PM 38.7270 -85.2570 56° Northeast 30,800 -1,529 Descending FlightAware ADS-B
Sun 05:27:07 PM 38.7920 -85.1330 56° Northeast 30,000 -1,714 Descending FlightAware ADS-B
Sun 05:27:47 PM 38.8440 -85.0330 56° Northeast 29,300 -1,931 Descending FlightAware ADS-B
Sun 05:28:32 PM 38.9020 -84.9220 56° Northeast 28,000 -2,194 Descending FlightAware ADS-B
Sun 05:29:12 PM 38.9530 -84.8220 57° Northeast 26,100 -2,427 Descending FlightAware ADS-B
Sun 05:30:01 PM 39.0033 -84.7258 57° Northeast 493 567 24,400 -1,800 Descending Indianapolis Center
Sun 05:31:02 PM 39.0778 -84.5864 55° Northeast 473 544 22,800 -1,301 Descending Indianapolis Center
Sun 05:36:52 PM 39.4530 -83.7820 55° Northeast 14,200 -1,271 Descending FlightAware ADS-B
Sun 05:37:37 PM 39.4870 -83.6900 64° Northeast 12,100 -928 Descending FlightAware ADS-B
Sun 05:38:07 PM 39.5120 -83.6250 63° Northeast 10,800 -407 Descending FlightAware ADS-B
Sun 05:39:02 PM 39.5540 -83.5120 64° Northeast 10,500 91 Descending FlightAware ADS-B
Sun 05:39:42 PM 39.5830 -83.4370 63° Northeast 10,600 390 Climbing FlightAware ADS-B
Sun 05:40:19 PM 39.6131 -83.3778 63° Northeast 350 403 11,000 -1,052 Climbing Indianapolis Center
Sun 05:41:19 PM 39.6500 -83.2844 63° Northeast 285 328 8,900 -2,081 Descending Indianapolis Center
Sun 05:42:23 PM 39.6775 -83.1917 69° East 279 321 6,700 -2,391 Descending Indianapolis Center
Sun 05:43:27 PM 39.7011 -83.0928 73° East 244 281 3,800 -1,872 Descending Indianapolis Center
Sun 05:44:28 PM 39.7344 -83.0342 54° Northeast 193 222 2,800 -934 Descending Indianapolis Center
Sun 05:45:29 PM 39.7667 -82.9919 45° Northeast 139 160 1,900 -787 Descending Indianapolis Center
Sun 05:46:30 PM 39.7919 -82.9594 45° Northeast 114 131 1,200 -439 Descending Indianapolis Center
Sun 05:47:32 PM 39.8128 -82.9303 47° Northeast 139 160 1,000 -194 Descending Indianapolis Center
Sun 05:49:00 PM 39.8138 -82.9278 90° East  Level Estimated

Login

Don't have an account? Register now (free) for customized features, flight alerts, and more!